METAR Data
IDs: Format: Raw Decoded Include TAF

Data at: 1559 UTC 03 Dec 2021

KEYW 031553Z 05007KT 020V080 10SM CLR 23/18 A3014 RMK AO2 SLP205 T02330178